sensor_id;sensor_type;location;lat;lon;timestamp;P1;durP1;ratioP1;P2;durP2;ratioP2
9884;SDS011;4981;50.966;4.842;2023-04-25T00:02:13;15.73;;;5.70;;
9884;SDS011;4981;50.966;4.842;2023-04-25T00:04:40;8.07;;;4.40;;
9884;SDS011;4981;50.966;4.842;2023-04-25T00:07:08;14.80;;;4.37;;
9884;SDS011;4981;50.966;4.842;2023-04-25T00:09:36;9.50;;;5.00;;
9884;SDS011;4981;50.966;4.842;2023-04-25T00:12:03;10.87;;;4.57;;
9884;SDS011;4981;50.966;4.842;2023-04-25T00:14:30;16.73;;;5.00;;
9884;SDS011;4981;50.966;4.842;2023-04-25T00:16:59;9.60;;;3.97;;
9884;SDS011;4981;50.966;4.842;2023-04-25T00:19:26;15.10;;;5.00;;
9884;SDS011;4981;50.966;4.842;2023-04-25T00:21:54;9.90;;;3.87;;
9884;SDS011;4981;50.966;4.842;2023-04-25T00:24:22;17.83;;;4.20;;
9884;SDS011;4981;50.966;4.842;2023-04-25T00:26:50;10.90;;;4.33;;
9884;SDS011;4981;50.966;4.842;2023-04-25T00:29:17;11.73;;;3.73;;
9884;SDS011;4981;50.966;4.842;2023-04-25T00:31:44;13.40;;;4.00;;
9884;SDS011;4981;50.966;4.842;2023-04-25T00:34:11;11.33;;;3.60;;
9884;SDS011;4981;50.966;4.842;2023-04-25T00:36:38;11.70;;;3.93;;
9884;SDS011;4981;50.966;4.842;2023-04-25T00:39:06;13.87;;;3.87;;
9884;SDS011;4981;50.966;4.842;2023-04-25T00:41:34;18.30;;;4.60;;
9884;SDS011;4981;50.966;4.842;2023-04-25T00:44:02;14.40;;;4.47;;
9884;SDS011;4981;50.966;4.842;2023-04-25T00:46:30;9.20;;;3.63;;
9884;SDS011;4981;50.966;4.842;2023-04-25T00:48:57;12.27;;;4.27;;
9884;SDS011;4981;50.966;4.842;2023-04-25T00:51:25;11.43;;;4.43;;
9884;SDS011;4981;50.966;4.842;2023-04-25T00:53:52;14.33;;;4.00;;
9884;SDS011;4981;50.966;4.842;2023-04-25T00:56:20;14.77;;;4.80;;
9884;SDS011;4981;50.966;4.842;2023-04-25T00:58:49;13.73;;;4.03;;
9884;SDS011;4981;50.966;4.842;2023-04-25T01:01:17;13.00;;;4.57;;
9884;SDS011;4981;50.966;4.842;2023-04-25T01:03:44;13.50;;;4.00;;
9884;SDS011;4981;50.966;4.842;2023-04-25T01:06:12;10.97;;;3.87;;
9884;SDS011;4981;50.966;4.842;2023-04-25T01:08:39;8.33;;;3.77;;
9884;SDS011;4981;50.966;4.842;2023-04-25T01:11:07;14.80;;;4.90;;
9884;SDS011;4981;50.966;4.842;2023-04-25T01:13:34;12.00;;;4.00;;
9884;SDS011;4981;50.966;4.842;2023-04-25T01:16:03;13.57;;;4.37;;
9884;SDS011;4981;50.966;4.842;2023-04-25T01:18:31;15.87;;;4.10;;
9884;SDS011;4981;50.966;4.842;2023-04-25T01:21:02;16.90;;;4.53;;
9884;SDS011;4981;50.966;4.842;2023-04-25T01:23:29;13.33;;;4.10;;
9884;SDS011;4981;50.966;4.842;2023-04-25T01:25:58;13.97;;;4.43;;
9884;SDS011;4981;50.966;4.842;2023-04-25T01:28:25;11.83;;;3.90;;
9884;SDS011;4981;50.966;4.842;2023-04-25T01:30:53;13.67;;;4.00;;
9884;SDS011;4981;50.966;4.842;2023-04-25T01:33:21;11.50;;;3.97;;
9884;SDS011;4981;50.966;4.842;2023-04-25T01:35:48;17.60;;;4.90;;
9884;SDS011;4981;50.966;4.842;2023-04-25T01:38:17;10.97;;;4.03;;
9884;SDS011;4981;50.966;4.842;2023-04-25T01:40:44;19.60;;;4.10;;
9884;SDS011;4981;50.966;4.842;2023-04-25T01:43:12;12.47;;;4.10;;
9884;SDS011;4981;50.966;4.842;2023-04-25T01:45:39;13.87;;;3.57;;
9884;SDS011;4981;50.966;4.842;2023-04-25T01:48:07;13.57;;;4.37;;
9884;SDS011;4981;50.966;4.842;2023-04-25T01:50:34;16.20;;;4.83;;
9884;SDS011;4981;50.966;4.842;2023-04-25T01:53:01;12.03;;;4.23;;
9884;SDS011;4981;50.966;4.842;2023-04-25T01:55:30;18.27;;;4.67;;
9884;SDS011;4981;50.966;4.842;2023-04-25T01:57:57;16.73;;;4.40;;
9884;SDS011;4981;50.966;4.842;2023-04-25T02:00:25;16.83;;;4.47;;
9884;SDS011;4981;50.966;4.842;2023-04-25T02:02:52;13.50;;;4.30;;
9884;SDS011;4981;50.966;4.842;2023-04-25T02:05:20;17.40;;;4.73;;
9884;SDS011;4981;50.966;4.842;2023-04-25T02:07:47;15.37;;;4.43;;
9884;SDS011;4981;50.966;4.842;2023-04-25T02:10:14;15.07;;;4.13;;
9884;SDS011;4981;50.966;4.842;2023-04-25T02:12:43;15.90;;;4.80;;
9884;SDS011;4981;50.966;4.842;2023-04-25T02:15:10;12.30;;;4.43;;
9884;SDS011;4981;50.966;4.842;2023-04-25T02:17:37;16.37;;;5.10;;
9884;SDS011;4981;50.966;4.842;2023-04-25T02:20:05;18.43;;;4.43;;
9884;SDS011;4981;50.966;4.842;2023-04-25T02:22:32;17.23;;;4.70;;
9884;SDS011;4981;50.966;4.842;2023-04-25T02:25:00;18.60;;;4.83;;
9884;SDS011;4981;50.966;4.842;2023-04-25T02:27:29;16.93;;;5.07;;
9884;SDS011;4981;50.966;4.842;2023-04-25T02:29:58;12.43;;;3.97;;
9884;SDS011;4981;50.966;4.842;2023-04-25T02:32:25;16.30;;;4.37;;
9884;SDS011;4981;50.966;4.842;2023-04-25T02:34:53;18.10;;;4.97;;
9884;SDS011;4981;50.966;4.842;2023-04-25T02:37:20;10.90;;;3.53;;
9884;SDS011;4981;50.966;4.842;2023-04-25T02:39:47;16.53;;;4.50;;
9884;SDS011;4981;50.966;4.842;2023-04-25T02:42:14;19.90;;;4.77;;
9884;SDS011;4981;50.966;4.842;2023-04-25T02:44:41;17.47;;;4.37;;
9884;SDS011;4981;50.966;4.842;2023-04-25T02:47:10;16.03;;;4.40;;
9884;SDS011;4981;50.966;4.842;2023-04-25T02:49:37;18.27;;;3.87;;
9884;SDS011;4981;50.966;4.842;2023-04-25T02:52:05;19.93;;;5.07;;
9884;SDS011;4981;50.966;4.842;2023-04-25T02:54:32;13.10;;;4.00;;
9884;SDS011;4981;50.966;4.842;2023-04-25T02:57:00;11.63;;;4.13;;
9884;SDS011;4981;50.966;4.842;2023-04-25T02:59:27;16.33;;;4.07;;
9884;SDS011;4981;50.966;4.842;2023-04-25T03:01:54;13.93;;;4.10;;
9884;SDS011;4981;50.966;4.842;2023-04-25T03:04:23;16.30;;;4.33;;
9884;SDS011;4981;50.966;4.842;2023-04-25T03:06:50;15.03;;;3.90;;
9884;SDS011;4981;50.966;4.842;2023-04-25T03:09:18;15.50;;;4.30;;
9884;SDS011;4981;50.966;4.842;2023-04-25T03:11:45;18.07;;;4.20;;
9884;SDS011;4981;50.966;4.842;2023-04-25T03:14:13;19.97;;;4.03;;
9884;SDS011;4981;50.966;4.842;2023-04-25T03:16:40;13.33;;;4.10;;
9884;SDS011;4981;50.966;4.842;2023-04-25T03:19:07;15.00;;;4.20;;
9884;SDS011;4981;50.966;4.842;2023-04-25T03:21:36;12.37;;;4.07;;
9884;SDS011;4981;50.966;4.842;2023-04-25T03:24:03;15.43;;;4.60;;
9884;SDS011;4981;50.966;4.842;2023-04-25T03:26:31;17.07;;;4.40;;
9884;SDS011;4981;50.966;4.842;2023-04-25T03:28:58;18.60;;;4.40;;
9884;SDS011;4981;50.966;4.842;2023-04-25T03:31:25;22.43;;;4.93;;
9884;SDS011;4981;50.966;4.842;2023-04-25T03:33:53;14.87;;;4.33;;
9884;SDS011;4981;50.966;4.842;2023-04-25T03:36:20;19.93;;;4.93;;
9884;SDS011;4981;50.966;4.842;2023-04-25T03:38:48;21.60;;;5.03;;
9884;SDS011;4981;50.966;4.842;2023-04-25T03:41:16;18.40;;;4.83;;
9884;SDS011;4981;50.966;4.842;2023-04-25T03:43:43;24.20;;;4.90;;
9884;SDS011;4981;50.966;4.842;2023-04-25T03:46:10;20.00;;;5.50;;
9884;SDS011;4981;50.966;4.842;2023-04-25T03:48:37;16.63;;;4.70;;
9884;SDS011;4981;50.966;4.842;2023-04-25T03:51:04;14.03;;;4.53;;
9884;SDS011;4981;50.966;4.842;2023-04-25T03:53:32;16.93;;;5.17;;
9884;SDS011;4981;50.966;4.842;2023-04-25T03:56:00;15.17;;;4.40;;
9884;SDS011;4981;50.966;4.842;2023-04-25T03:58:27;14.37;;;4.40;;
9884;SDS011;4981;50.966;4.842;2023-04-25T04:00:55;22.33;;;4.83;;
9884;SDS011;4981;50.966;4.842;2023-04-25T04:03:22;17.33;;;5.17;;
9884;SDS011;4981;50.966;4.842;2023-04-25T04:05:49;14.20;;;4.57;;
9884;SDS011;4981;50.966;4.842;2023-04-25T04:08:17;19.73;;;4.37;;
9884;SDS011;4981;50.966;4.842;2023-04-25T04:10:44;17.33;;;4.20;;
9884;SDS011;4981;50.966;4.842;2023-04-25T04:13:13;13.93;;;4.10;;
9884;SDS011;4981;50.966;4.842;2023-04-25T04:15:40;17.70;;;4.37;;
9884;SDS011;4981;50.966;4.842;2023-04-25T04:18:07;18.33;;;4.73;;
9884;SDS011;4981;50.966;4.842;2023-04-25T04:20:34;20.20;;;4.37;;
9884;SDS011;4981;50.966;4.842;2023-04-25T04:23:02;16.33;;;4.30;;
9884;SDS011;4981;50.966;4.842;2023-04-25T04:25:30;16.37;;;4.17;;
9884;SDS011;4981;50.966;4.842;2023-04-25T04:27:57;9.70;;;3.43;;
9884;SDS011;4981;50.966;4.842;2023-04-25T04:30:27;18.47;;;3.60;;
9884;SDS011;4981;50.966;4.842;2023-04-25T04:32:56;12.23;;;3.90;;
9884;SDS011;4981;50.966;4.842;2023-04-25T04:35:23;12.80;;;3.83;;
9884;SDS011;4981;50.966;4.842;2023-04-25T04:37:50;15.97;;;3.93;;
9884;SDS011;4981;50.966;4.842;2023-04-25T04:40:18;15.30;;;3.60;;
9884;SDS011;4981;50.966;4.842;2023-04-25T04:42:45;15.80;;;4.23;;
9884;SDS011;4981;50.966;4.842;2023-04-25T04:45:13;16.17;;;4.47;;
9884;SDS011;4981;50.966;4.842;2023-04-25T04:47:42;11.90;;;4.57;;
9884;SDS011;4981;50.966;4.842;2023-04-25T04:50:10;14.47;;;3.77;;
9884;SDS011;4981;50.966;4.842;2023-04-25T04:52:37;13.60;;;3.70;;
9884;SDS011;4981;50.966;4.842;2023-04-25T04:55:05;12.30;;;3.73;;
9884;SDS011;4981;50.966;4.842;2023-04-25T04:57:33;12.47;;;3.87;;
9884;SDS011;4981;50.966;4.842;2023-04-25T05:00:00;18.00;;;4.50;;
9884;SDS011;4981;50.966;4.842;2023-04-25T05:02:28;18.97;;;5.33;;
9884;SDS011;4981;50.966;4.842;2023-04-25T05:04:57;13.93;;;4.30;;
9884;SDS011;4981;50.966;4.842;2023-04-25T05:07:24;15.77;;;4.50;;
9884;SDS011;4981;50.966;4.842;2023-04-25T05:09:51;17.83;;;4.43;;
9884;SDS011;4981;50.966;4.842;2023-04-25T05:12:19;17.97;;;4.73;;
9884;SDS011;4981;50.966;4.842;2023-04-25T05:14:46;15.13;;;3.97;;
9884;SDS011;4981;50.966;4.842;2023-04-25T05:17:13;16.90;;;4.10;;
9884;SDS011;4981;50.966;4.842;2023-04-25T05:19:40;13.47;;;4.50;;
9884;SDS011;4981;50.966;4.842;2023-04-25T05:22:09;18.87;;;4.47;;
9884;SDS011;4981;50.966;4.842;2023-04-25T05:24:36;17.03;;;4.63;;
9884;SDS011;4981;50.966;4.842;2023-04-25T05:27:04;18.33;;;4.80;;
9884;SDS011;4981;50.966;4.842;2023-04-25T05:29:31;14.93;;;4.20;;
9884;SDS011;4981;50.966;4.842;2023-04-25T05:31:59;14.13;;;3.83;;
9884;SDS011;4981;50.966;4.842;2023-04-25T05:34:26;15.00;;;4.20;;
9884;SDS011;4981;50.966;4.842;2023-04-25T05:36:53;23.03;;;4.60;;
9884;SDS011;4981;50.966;4.842;2023-04-25T05:39:22;13.97;;;4.10;;
9884;SDS011;4981;50.966;4.842;2023-04-25T05:41:49;16.33;;;4.37;;
9884;SDS011;4981;50.966;4.842;2023-04-25T05:44:16;15.03;;;4.30;;
9884;SDS011;4981;50.966;4.842;2023-04-25T05:46:43;12.77;;;3.87;;
9884;SDS011;4981;50.966;4.842;2023-04-25T05:49:11;19.67;;;4.70;;
9884;SDS011;4981;50.966;4.842;2023-04-25T05:51:38;19.03;;;4.70;;
9884;SDS011;4981;50.966;4.842;2023-04-25T05:54:05;14.37;;;3.87;;
9884;SDS011;4981;50.966;4.842;2023-04-25T05:56:34;15.57;;;4.47;;
9884;SDS011;4981;50.966;4.842;2023-04-25T05:59:01;14.93;;;4.50;;
9884;SDS011;4981;50.966;4.842;2023-04-25T06:01:29;13.27;;;4.57;;
9884;SDS011;4981;50.966;4.842;2023-04-25T06:03:56;19.00;;;4.87;;
9884;SDS011;4981;50.966;4.842;2023-04-25T06:06:24;18.53;;;4.50;;
9884;SDS011;4981;50.966;4.842;2023-04-25T06:08:51;15.23;;;4.17;;
9884;SDS011;4981;50.966;4.842;2023-04-25T06:11:19;18.63;;;4.93;;
9884;SDS011;4981;50.966;4.842;2023-04-25T06:13:48;14.30;;;3.83;;
9884;SDS011;4981;50.966;4.842;2023-04-25T06:16:15;13.30;;;3.50;;
9884;SDS011;4981;50.966;4.842;2023-04-25T06:18:42;16.50;;;4.40;;
9884;SDS011;4981;50.966;4.842;2023-04-25T06:21:09;17.43;;;4.20;;
9884;SDS011;4981;50.966;4.842;2023-04-25T06:23:37;17.00;;;4.47;;
9884;SDS011;4981;50.966;4.842;2023-04-25T06:26:04;15.03;;;4.33;;
9884;SDS011;4981;50.966;4.842;2023-04-25T06:28:31;16.57;;;4.17;;
9884;SDS011;4981;50.966;4.842;2023-04-25T06:31:00;18.53;;;4.23;;
9884;SDS011;4981;50.966;4.842;2023-04-25T06:33:27;21.07;;;5.20;;
9884;SDS011;4981;50.966;4.842;2023-04-25T06:35:54;17.53;;;4.30;;
9884;SDS011;4981;50.966;4.842;2023-04-25T06:38:21;12.93;;;4.30;;
9884;SDS011;4981;50.966;4.842;2023-04-25T06:40:48;13.43;;;3.83;;
9884;SDS011;4981;50.966;4.842;2023-04-25T06:43:16;14.73;;;3.90;;
9884;SDS011;4981;50.966;4.842;2023-04-25T06:45:43;11.93;;;3.80;;
9884;SDS011;4981;50.966;4.842;2023-04-25T06:48:12;14.23;;;4.00;;
9884;SDS011;4981;50.966;4.842;2023-04-25T06:50:39;17.57;;;4.37;;
9884;SDS011;4981;50.966;4.842;2023-04-25T06:53:06;15.60;;;4.60;;
9884;SDS011;4981;50.966;4.842;2023-04-25T06:55:34;9.17;;;3.37;;
9884;SDS011;4981;50.966;4.842;2023-04-25T06:58:01;14.10;;;3.97;;
9884;SDS011;4981;50.966;4.842;2023-04-25T07:00:28;17.07;;;3.67;;
9884;SDS011;4981;50.966;4.842;2023-04-25T07:02:55;12.27;;;3.77;;
9884;SDS011;4981;50.966;4.842;2023-04-25T07:05:24;12.50;;;4.10;;
9884;SDS011;4981;50.966;4.842;2023-04-25T07:07:51;14.20;;;3.00;;
9884;SDS011;4981;50.966;4.842;2023-04-25T07:10:18;12.77;;;3.20;;
9884;SDS011;4981;50.966;4.842;2023-04-25T07:12:46;11.67;;;2.70;;
9884;SDS011;4981;50.966;4.842;2023-04-25T07:15:13;11.27;;;3.63;;
9884;SDS011;4981;50.966;4.842;2023-04-25T07:17:40;14.77;;;3.83;;
9884;SDS011;4981;50.966;4.842;2023-04-25T07:20:08;11.97;;;3.47;;
9884;SDS011;4981;50.966;4.842;2023-04-25T07:22:37;18.20;;;3.50;;
9884;SDS011;4981;50.966;4.842;2023-04-25T07:25:04;14.70;;;3.57;;
9884;SDS011;4981;50.966;4.842;2023-04-25T09:32:17;8.03;;;2.60;;
9884;SDS011;4981;50.966;4.842;2023-04-25T09:34:46;9.30;;;2.10;;
9884;SDS011;4981;50.966;4.842;2023-04-25T09:37:17;8.40;;;2.43;;
9884;SDS011;4981;50.966;4.842;2023-04-25T09:39:45;10.47;;;2.53;;
9884;SDS011;4981;50.966;4.842;2023-04-25T09:42:13;8.90;;;2.47;;
9884;SDS011;4981;50.966;4.842;2023-04-25T09:44:44;9.47;;;2.43;;
9884;SDS011;4981;50.966;4.842;2023-04-25T09:47:12;9.20;;;2.03;;
9884;SDS011;4981;50.966;4.842;2023-04-25T09:49:42;10.03;;;2.17;;
9884;SDS011;4981;50.966;4.842;2023-04-25T09:52:10;7.60;;;2.10;;
9884;SDS011;4981;50.966;4.842;2023-04-25T09:54:39;7.10;;;2.00;;
9884;SDS011;4981;50.966;4.842;2023-04-25T09:57:09;8.27;;;2.23;;
9884;SDS011;4981;50.966;4.842;2023-04-25T09:59:38;14.67;;;2.27;;
9884;SDS011;4981;50.966;4.842;2023-04-25T10:02:06;8.07;;;1.80;;
9884;SDS011;4981;50.966;4.842;2023-04-25T10:04:34;8.13;;;2.30;;
9884;SDS011;4981;50.966;4.842;2023-04-25T10:07:04;4.97;;;1.53;;
9884;SDS011;4981;50.966;4.842;2023-04-25T10:09:32;6.20;;;1.60;;
9884;SDS011;4981;50.966;4.842;2023-04-25T10:12:00;6.63;;;1.77;;
9884;SDS011;4981;50.966;4.842;2023-04-25T10:14:28;5.60;;;1.57;;
9884;SDS011;4981;50.966;4.842;2023-04-25T10:16:57;9.17;;;1.90;;
9884;SDS011;4981;50.966;4.842;2023-04-25T10:19:24;8.57;;;1.80;;
9884;SDS011;4981;50.966;4.842;2023-04-25T10:21:54;8.60;;;1.63;;
9884;SDS011;4981;50.966;4.842;2023-04-25T10:24:24;8.50;;;1.50;;
9884;SDS011;4981;50.966;4.842;2023-04-25T10:26:51;2.93;;;0.97;;
9884;SDS011;4981;50.966;4.842;2023-04-25T10:29:21;3.90;;;1.33;;
9884;SDS011;4981;50.966;4.842;2023-04-25T10:31:49;5.77;;;1.10;;
9884;SDS011;4981;50.966;4.842;2023-04-25T10:34:17;5.17;;;1.30;;
9884;SDS011;4981;50.966;4.842;2023-04-25T10:36:49;5.83;;;1.37;;
9884;SDS011;4981;50.966;4.842;2023-04-25T10:39:21;3.10;;;1.47;;
9884;SDS011;4981;50.966;4.842;2023-04-25T10:41:53;3.30;;;1.00;;
9884;SDS011;4981;50.966;4.842;2023-04-25T10:44:21;4.27;;;1.20;;
9884;SDS011;4981;50.966;4.842;2023-04-25T10:46:48;3.23;;;0.93;;
9884;SDS011;4981;50.966;4.842;2023-04-25T10:49:28;3.77;;;1.10;;
9884;SDS011;4981;50.966;4.842;2023-04-25T10:52:10;2.60;;;1.20;;
9884;SDS011;4981;50.966;4.842;2023-04-25T10:54:40;6.80;;;1.10;;
9884;SDS011;4981;50.966;4.842;2023-04-25T10:57:09;3.97;;;1.53;;
9884;SDS011;4981;50.966;4.842;2023-04-25T10:59:53;2.33;;;0.93;;
9884;SDS011;4981;50.966;4.842;2023-04-25T11:02:21;4.87;;;1.20;;
9884;SDS011;4981;50.966;4.842;2023-04-25T11:04:53;6.70;;;1.23;;
9884;SDS011;4981;50.966;4.842;2023-04-25T11:07:23;5.80;;;1.43;;
9884;SDS011;4981;50.966;4.842;2023-04-25T11:09:50;5.00;;;1.60;;
9884;SDS011;4981;50.966;4.842;2023-04-25T11:12:19;5.13;;;1.20;;
9884;SDS011;4981;50.966;4.842;2023-04-25T11:14:47;4.43;;;1.80;;
9884;SDS011;4981;50.966;4.842;2023-04-25T11:17:14;6.93;;;1.77;;
9884;SDS011;4981;50.966;4.842;2023-04-25T11:19:41;5.97;;;1.73;;
9884;SDS011;4981;50.966;4.842;2023-04-25T11:22:09;3.83;;;1.30;;
9884;SDS011;4981;50.966;4.842;2023-04-25T11:24:37;5.50;;;1.30;;
9884;SDS011;4981;50.966;4.842;2023-04-25T11:27:05;4.50;;;1.30;;
9884;SDS011;4981;50.966;4.842;2023-04-25T11:29:34;4.27;;;1.40;;
9884;SDS011;4981;50.966;4.842;2023-04-25T11:32:01;4.30;;;1.37;;
9884;SDS011;4981;50.966;4.842;2023-04-25T11:34:29;3.97;;;1.67;;
9884;SDS011;4981;50.966;4.842;2023-04-25T11:36:56;6.87;;;1.43;;
9884;SDS011;4981;50.966;4.842;2023-04-25T11:39:24;5.57;;;1.63;;
9884;SDS011;4981;50.966;4.842;2023-04-25T11:41:52;6.77;;;2.17;;
9884;SDS011;4981;50.966;4.842;2023-04-25T11:44:20;4.73;;;1.63;;
9884;SDS011;4981;50.966;4.842;2023-04-25T11:46:49;5.63;;;1.57;;
9884;SDS011;4981;50.966;4.842;2023-04-25T11:49:16;5.83;;;2.07;;
9884;SDS011;4981;50.966;4.842;2023-04-25T11:51:44;7.00;;;1.90;;
9884;SDS011;4981;50.966;4.842;2023-04-25T11:54:11;6.57;;;1.40;;
9884;SDS011;4981;50.966;4.842;2023-04-25T11:56:40;5.63;;;1.50;;
9884;SDS011;4981;50.966;4.842;2023-04-25T11:59:08;5.60;;;1.50;;
9884;SDS011;4981;50.966;4.842;2023-04-25T12:01:36;7.23;;;1.50;;
9884;SDS011;4981;50.966;4.842;2023-04-25T12:04:11;4.63;;;1.47;;
9884;SDS011;4981;50.966;4.842;2023-04-25T12:06:38;5.53;;;1.50;;
9884;SDS011;4981;50.966;4.842;2023-04-25T12:09:07;4.20;;;1.37;;
9884;SDS011;4981;50.966;4.842;2023-04-25T12:11:40;4.47;;;1.60;;
9884;SDS011;4981;50.966;4.842;2023-04-25T12:14:08;2.90;;;1.10;;
9884;SDS011;4981;50.966;4.842;2023-04-25T12:16:42;5.07;;;1.10;;
9884;SDS011;4981;50.966;4.842;2023-04-25T12:19:13;4.70;;;1.20;;
9884;SDS011;4981;50.966;4.842;2023-04-25T12:21:40;5.17;;;1.13;;
9884;SDS011;4981;50.966;4.842;2023-04-25T12:24:09;3.57;;;1.43;;
9884;SDS011;4981;50.966;4.842;2023-04-25T12:26:46;4.03;;;1.30;;
9884;SDS011;4981;50.966;4.842;2023-04-25T12:29:17;3.33;;;1.20;;
9884;SDS011;4981;50.966;4.842;2023-04-25T12:31:45;7.37;;;1.50;;
9884;SDS011;4981;50.966;4.842;2023-04-25T12:34:13;3.83;;;1.40;;
9884;SDS011;4981;50.966;4.842;2023-04-25T12:36:41;6.97;;;1.20;;
9884;SDS011;4981;50.966;4.842;2023-04-25T12:39:08;5.63;;;1.20;;
9884;SDS011;4981;50.966;4.842;2023-04-25T12:41:41;4.17;;;1.00;;
9884;SDS011;4981;50.966;4.842;2023-04-25T12:44:08;4.37;;;1.30;;
9884;SDS011;4981;50.966;4.842;2023-04-25T12:46:35;8.00;;;1.30;;
9884;SDS011;4981;50.966;4.842;2023-04-25T12:49:03;3.97;;;1.23;;
9884;SDS011;4981;50.966;4.842;2023-04-25T12:51:32;5.13;;;1.30;;
9884;SDS011;4981;50.966;4.842;2023-04-25T12:54:00;6.07;;;1.20;;
9884;SDS011;4981;50.966;4.842;2023-04-25T12:56:27;5.73;;;1.53;;
9884;SDS011;4981;50.966;4.842;2023-04-25T12:58:55;8.10;;;1.40;;
9884;SDS011;4981;50.966;4.842;2023-04-25T13:01:22;3.03;;;1.00;;
9884;SDS011;4981;50.966;4.842;2023-04-25T13:03:49;1.90;;;0.90;;
9884;SDS011;4981;50.966;4.842;2023-04-25T13:06:17;4.50;;;1.03;;
9884;SDS011;4981;50.966;4.842;2023-04-25T13:08:46;3.17;;;1.10;;
9884;SDS011;4981;50.966;4.842;2023-04-25T13:11:13;2.97;;;1.00;;
9884;SDS011;4981;50.966;4.842;2023-04-25T13:13:41;3.47;;;0.83;;
9884;SDS011;4981;50.966;4.842;2023-04-25T13:16:08;3.33;;;0.87;;
9884;SDS011;4981;50.966;4.842;2023-04-25T13:18:36;5.50;;;1.00;;
9884;SDS011;4981;50.966;4.842;2023-04-25T13:21:03;4.33;;;1.03;;
9884;SDS011;4981;50.966;4.842;2023-04-25T13:23:30;7.63;;;1.00;;
9884;SDS011;4981;50.966;4.842;2023-04-25T13:25:59;3.90;;;0.90;;
9884;SDS011;4981;50.966;4.842;2023-04-25T13:28:27;3.67;;;1.03;;
9884;SDS011;4981;50.966;4.842;2023-04-25T13:30:54;3.53;;;1.00;;
9884;SDS011;4981;50.966;4.842;2023-04-25T13:33:21;4.50;;;1.27;;
9884;SDS011;4981;50.966;4.842;2023-04-25T13:35:49;4.70;;;0.87;;
9884;SDS011;4981;50.966;4.842;2023-04-25T13:38:19;3.90;;;0.93;;
9884;SDS011;4981;50.966;4.842;2023-04-25T13:40:46;3.73;;;0.77;;
9884;SDS011;4981;50.966;4.842;2023-04-25T13:43:15;3.03;;;0.77;;
9884;SDS011;4981;50.966;4.842;2023-04-25T15:53:21;4.07;;;0.90;;
9884;SDS011;4981;50.966;4.842;2023-04-25T15:55:49;5.70;;;1.37;;
9884;SDS011;4981;50.966;4.842;2023-04-25T15:58:16;3.40;;;1.07;;
9884;SDS011;4981;50.966;4.842;2023-04-25T16:00:43;6.00;;;1.37;;
9884;SDS011;4981;50.966;4.842;2023-04-25T16:03:13;4.93;;;1.10;;
9884;SDS011;4981;50.966;4.842;2023-04-25T16:05:40;4.20;;;1.20;;
9884;SDS011;4981;50.966;4.842;2023-04-25T16:08:07;4.07;;;1.40;;
9884;SDS011;4981;50.966;4.842;2023-04-25T16:10:36;3.60;;;1.17;;
9884;SDS011;4981;50.966;4.842;2023-04-25T16:13:03;5.00;;;1.40;;
9884;SDS011;4981;50.966;4.842;2023-04-25T16:15:31;5.77;;;1.20;;
9884;SDS011;4981;50.966;4.842;2023-04-25T16:17:58;3.83;;;1.10;;
9884;SDS011;4981;50.966;4.842;2023-04-25T16:20:25;6.13;;;1.10;;
9884;SDS011;4981;50.966;4.842;2023-04-25T16:22:52;6.13;;;1.50;;
9884;SDS011;4981;50.966;4.842;2023-04-25T16:25:20;6.57;;;1.20;;
9884;SDS011;4981;50.966;4.842;2023-04-25T16:27:48;5.27;;;1.03;;
9884;SDS011;4981;50.966;4.842;2023-04-25T16:30:16;4.20;;;1.27;;
9884;SDS011;4981;50.966;4.842;2023-04-25T16:32:43;2.63;;;0.90;;
9884;SDS011;4981;50.966;4.842;2023-04-25T16:35:10;6.70;;;1.20;;
9884;SDS011;4981;50.966;4.842;2023-04-25T16:37:38;5.37;;;1.40;;
9884;SDS011;4981;50.966;4.842;2023-04-25T16:40:05;8.27;;;1.40;;
9884;SDS011;4981;50.966;4.842;2023-04-25T16:42:34;6.87;;;1.43;;
9884;SDS011;4981;50.966;4.842;2023-04-25T16:45:03;3.67;;;1.03;;
9884;SDS011;4981;50.966;4.842;2023-04-25T16:47:30;5.17;;;1.00;;
9884;SDS011;4981;50.966;4.842;2023-04-25T16:49:58;6.00;;;0.90;;
9884;SDS011;4981;50.966;4.842;2023-04-25T16:52:25;3.73;;;1.20;;
9884;SDS011;4981;50.966;4.842;2023-04-25T16:54:52;3.23;;;1.27;;
9884;SDS011;4981;50.966;4.842;2023-04-25T16:57:20;5.83;;;1.00;;
9884;SDS011;4981;50.966;4.842;2023-04-25T16:59:47;5.27;;;1.23;;
9884;SDS011;4981;50.966;4.842;2023-04-25T17:02:16;3.40;;;0.90;;
9884;SDS011;4981;50.966;4.842;2023-04-25T17:04:44;5.23;;;1.27;;
9884;SDS011;4981;50.966;4.842;2023-04-25T17:07:11;7.90;;;1.40;;
9884;SDS011;4981;50.966;4.842;2023-04-25T17:09:39;3.00;;;1.20;;
9884;SDS011;4981;50.966;4.842;2023-04-25T17:12:07;4.63;;;1.00;;
9884;SDS011;4981;50.966;4.842;2023-04-25T17:14:34;4.30;;;1.10;;
9884;SDS011;4981;50.966;4.842;2023-04-25T17:17:01;3.60;;;1.20;;
9884;SDS011;4981;50.966;4.842;2023-04-25T17:19:30;5.07;;;1.13;;
9884;SDS011;4981;50.966;4.842;2023-04-25T17:21:57;5.73;;;1.40;;
9884;SDS011;4981;50.966;4.842;2023-04-25T17:24:24;3.90;;;1.27;;
9884;SDS011;4981;50.966;4.842;2023-04-25T17:26:52;5.90;;;1.40;;
9884;SDS011;4981;50.966;4.842;2023-04-25T17:29:20;4.67;;;1.27;;
9884;SDS011;4981;50.966;4.842;2023-04-25T17:31:48;8.00;;;1.70;;
9884;SDS011;4981;50.966;4.842;2023-04-25T17:34:17;5.77;;;1.50;;
9884;SDS011;4981;50.966;4.842;2023-04-25T17:36:46;7.93;;;2.20;;
9884;SDS011;4981;50.966;4.842;2023-04-25T17:39:13;3.20;;;1.33;;
9884;SDS011;4981;50.966;4.842;2023-04-25T17:41:41;3.47;;;1.40;;
9884;SDS011;4981;50.966;4.842;2023-04-25T17:44:08;5.10;;;1.80;;
9884;SDS011;4981;50.966;4.842;2023-04-25T17:46:36;8.33;;;1.90;;
9884;SDS011;4981;50.966;4.842;2023-04-25T17:49:03;8.93;;;1.93;;
9884;SDS011;4981;50.966;4.842;2023-04-25T17:51:30;8.03;;;1.80;;
9884;SDS011;4981;50.966;4.842;2023-04-25T17:53:59;4.77;;;1.70;;
9884;SDS011;4981;50.966;4.842;2023-04-25T17:56:26;3.97;;;1.50;;
9884;SDS011;4981;50.966;4.842;2023-04-25T17:58:54;4.40;;;1.40;;
9884;SDS011;4981;50.966;4.842;2023-04-25T18:01:21;5.67;;;1.87;;
9884;SDS011;4981;50.966;4.842;2023-04-25T18:03:50;3.20;;;1.57;;
9884;SDS011;4981;50.966;4.842;2023-04-25T18:06:17;5.40;;;1.30;;
9884;SDS011;4981;50.966;4.842;2023-04-25T18:08:45;6.87;;;2.73;;
9884;SDS011;4981;50.966;4.842;2023-04-25T18:11:13;2.37;;;0.90;;
9884;SDS011;4981;50.966;4.842;2023-04-25T18:13:41;4.07;;;1.37;;
9884;SDS011;4981;50.966;4.842;2023-04-25T18:16:08;2.40;;;1.00;;
9884;SDS011;4981;50.966;4.842;2023-04-25T18:18:36;4.13;;;1.43;;
9884;SDS011;4981;50.966;4.842;2023-04-25T18:21:03;5.90;;;1.50;;
9884;SDS011;4981;50.966;4.842;2023-04-25T18:23:32;4.10;;;1.33;;
9884;SDS011;4981;50.966;4.842;2023-04-25T18:26:00;8.43;;;1.60;;
9884;SDS011;4981;50.966;4.842;2023-04-25T18:28:29;2.80;;;1.20;;
9884;SDS011;4981;50.966;4.842;2023-04-25T18:30:58;5.87;;;1.30;;
9884;SDS011;4981;50.966;4.842;2023-04-25T18:33:25;2.10;;;1.10;;
9884;SDS011;4981;50.966;4.842;2023-04-25T18:35:52;3.60;;;0.90;;
9884;SDS011;4981;50.966;4.842;2023-04-25T18:38:22;5.83;;;1.60;;
9884;SDS011;4981;50.966;4.842;2023-04-25T18:40:49;3.20;;;0.90;;
9884;SDS011;4981;50.966;4.842;2023-04-25T18:43:16;3.90;;;1.37;;
9884;SDS011;4981;50.966;4.842;2023-04-25T18:45:45;3.93;;;1.30;;
9884;SDS011;4981;50.966;4.842;2023-04-25T18:48:12;6.73;;;1.40;;
9884;SDS011;4981;50.966;4.842;2023-04-25T18:50:40;6.37;;;1.53;;
9884;SDS011;4981;50.966;4.842;2023-04-25T18:53:08;6.10;;;1.60;;
9884;SDS011;4981;50.966;4.842;2023-04-25T18:55:35;4.57;;;1.37;;
9884;SDS011;4981;50.966;4.842;2023-04-25T18:58:02;4.37;;;1.60;;
9884;SDS011;4981;50.966;4.842;2023-04-25T19:00:31;3.37;;;1.10;;
9884;SDS011;4981;50.966;4.842;2023-04-25T19:03:00;3.87;;;1.23;;
9884;SDS011;4981;50.966;4.842;2023-04-25T19:05:28;8.10;;;2.90;;
9884;SDS011;4981;50.966;4.842;2023-04-25T19:07:56;5.00;;;1.70;;
9884;SDS011;4981;50.966;4.842;2023-04-25T19:10:24;5.37;;;1.50;;
9884;SDS011;4981;50.966;4.842;2023-04-25T19:12:52;7.70;;;2.33;;
9884;SDS011;4981;50.966;4.842;2023-04-25T19:15:20;9.67;;;1.63;;
9884;SDS011;4981;50.966;4.842;2023-04-25T19:17:47;5.83;;;1.43;;
9884;SDS011;4981;50.966;4.842;2023-04-25T19:20:17;5.63;;;1.57;;
9884;SDS011;4981;50.966;4.842;2023-04-25T19:22:45;4.40;;;1.53;;
9884;SDS011;4981;50.966;4.842;2023-04-25T19:25:12;7.80;;;1.80;;